Time;durP1;ratioP1;P1;durP2;ratioP2;P2;SDS_P1;SDS_P2;PMS_P1;PMS_P2;Temp;Humidity;BMP_temperature;BMP_pressure;BME280_temperature;BME280_humidity;BME280_pressure;Samples;Min_cycle;Max_cycle;Signal;HPM_P1;HPM_P2
2023/01/28 00:00:23;;;;;;;13.50;12.05;;;;;;;1.69;100.00;161012.31;5032117;28;20044;-64
2023/01/28 00:02:48;;;;;;;15.20;13.63;;;;;;;1.68;100.00;161009.59;5033737;28;20017;-64
2023/01/28 00:05:14;;;;;;;14.85;13.35;;;;;;;1.74;100.00;161027.06;5032098;28;20505;-64
2023/01/28 00:07:40;;;;;;;15.65;12.60;;;;;;;1.77;100.00;161033.78;5033628;28;20041;-64
2023/01/28 00:10:05;;;;;;;16.48;14.70;;;;;;;1.76;100.00;161031.09;5031957;28;20029;-64
2023/01/28 00:12:31;;;;;;;18.08;16.10;;;;;;;1.74;100.00;161025.75;5033495;28;20021;-64
2023/01/28 00:14:56;;;;;;;17.65;15.13;;;;;;;1.75;100.00;161028.38;5033448;28;20607;-65
2023/01/28 00:17:21;;;;;;;17.08;14.20;;;;;;;1.75;100.00;161028.38;5031623;28;20038;-64
2023/01/28 00:19:47;;;;;;;16.05;14.05;;;;;;;1.69;100.00;161012.31;5028630;28;20021;-64
2023/01/28 00:22:12;;;;;;;17.48;14.73;;;;;;;1.72;100.00;161021.69;5032230;28;20044;-64
2023/01/28 00:24:37;;;;;;;17.70;14.25;;;;;;;1.63;100.00;160996.22;5032977;28;20048;-64
2023/01/28 00:27:03;;;;;;;15.10;13.50;;;;;;;1.75;100.00;161028.38;5031951;28;20038;-64
2023/01/28 00:29:28;;;;;;;17.80;15.73;;;;;;;1.69;100.00;161012.31;5032968;28;20029;-64
2023/01/28 00:31:53;;;;;;;15.95;14.25;;;;;;;1.70;100.00;161015.00;5031603;28;20516;-64
2023/01/28 00:34:19;;;;;;;17.10;14.07;;;;;;;1.65;100.00;161001.59;5033259;28;20428;-64
2023/01/28 00:36:53;;;;;;;18.52;15.85;;;;;;;1.64;100.00;160998.91;5031918;28;20041;-64
2023/01/28 00:39:18;;;;;;;20.70;16.30;;;;;;;1.63;100.00;160997.56;5032993;28;20014;-64
2023/01/28 00:41:43;;;;;;;18.45;16.48;;;;;;;1.58;100.00;160985.50;5031658;28;20041;-64
2023/01/28 00:44:09;;;;;;;19.10;16.60;;;;;;;1.64;100.00;160998.91;5033204;28;20032;-65
2023/01/28 00:46:34;;;;;;;19.10;15.77;;;;;;;1.60;100.00;160988.19;5031047;28;20041;-64
2023/01/28 00:49:00;;;;;;;18.05;15.40;;;;;;;1.66;100.00;161005.59;5032869;28;20038;-66
2023/01/28 00:51:25;;;;;;;15.63;13.32;;;;;;;1.68;100.00;161009.59;5031413;28;20037;-65
2023/01/28 00:53:52;;;;;;;16.75;14.40;;;;;;;1.61;100.00;160990.81;5032511;28;20595;-65
2023/01/28 00:56:18;;;;;;;16.88;14.88;;;;;;;1.62;100.00;160993.53;5031174;28;20045;-65
2023/01/28 00:58:44;;;;;;;19.90;14.95;;;;;;;1.60;100.00;160989.50;5033239;28;20079;-65
2023/01/28 01:01:15;;;;;;;15.18;13.63;;;;;;;1.63;100.00;160996.22;5030993;28;20041;-66
2023/01/28 01:03:40;;;;;;;17.25;15.10;;;;;;;1.61;100.00;160992.19;5032879;28;20091;-66
2023/01/28 01:06:07;;;;;;;16.08;14.15;;;;;;;1.62;100.00;160993.53;5031201;28;20448;-65
2023/01/28 01:08:38;;;;;;;14.65;13.13;;;;;;;1.57;100.00;160982.81;5032244;28;20357;-65
2023/01/28 01:11:06;;;;;;;15.93;14.23;;;;;;;1.60;100.00;160988.19;5031174;28;20038;-65
2023/01/28 01:13:33;;;;;;;16.60;14.90;;;;;;;1.62;100.00;160993.53;5032334;28;20033;-66
2023/01/28 01:16:12;;;;;;;16.83;15.05;;;;;;;1.62;100.00;160993.53;5030961;28;20095;-66
2023/01/28 01:18:41;;;;;;;18.83;14.63;;;;;;;1.59;100.00;160986.81;5032479;28;20036;-66
2023/01/28 01:21:13;;;;;;;15.00;13.45;;;;;;;1.50;100.00;160964.03;5031025;28;20037;-66
2023/01/28 01:23:38;;;;;;;17.92;14.88;;;;;;;1.41;100.00;160939.88;5032116;28;20026;-66
2023/01/28 01:26:05;;;;;;;17.45;14.63;;;;;;;1.45;100.00;160949.25;5030596;28;20453;-66
2023/01/28 01:28:30;;;;;;;15.80;14.15;;;;;;;1.45;100.00;160950.63;5031773;28;20061;-66
2023/01/28 01:31:01;;;;;;;16.13;14.43;;;;;;;1.43;100.00;160945.25;5030560;28;20523;-67
2023/01/28 01:33:28;;;;;;;15.27;13.73;;;;;;;1.35;100.00;160923.78;5031584;28;20063;-66
2023/01/28 01:35:54;;;;;;;16.52;14.73;;;;;;;1.38;100.00;160931.78;5030943;28;20095;-67
2023/01/28 01:38:20;;;;;;;16.60;13.82;;;;;;;1.38;100.00;160933.16;5031735;28;20025;-66
2023/01/28 01:40:45;;;;;;;16.05;13.82;;;;;;;1.37;100.00;160929.16;5030693;28;20048;-65
2023/01/28 01:43:16;;;;;;;15.93;14.25;;;;;;;1.32;100.00;160915.72;5032025;28;20374;-65
2023/01/28 01:45:42;;;;;;;15.98;14.23;;;;;;;1.31;100.00;160914.38;5030378;28;20404;-65
2023/01/28 01:48:19;;;;;;;16.17;13.45;;;;;;;1.26;100.00;160902.31;5031626;28;20117;-65
2023/01/28 01:51:01;;;;;;;15.85;14.05;;;;;;;1.24;100.00;160896.94;5030453;28;20046;-65
2023/01/28 01:53:28;;;;;;;19.80;15.70;;;;;;;1.19;100.00;160882.22;5031508;28;20025;-65
2023/01/28 01:55:59;;;;;;;16.83;14.50;;;;;;;1.21;100.00;160887.53;5030226;28;20052;-65
2023/01/28 01:58:29;;;;;;;17.67;15.23;;;;;;;1.15;100.00;160872.81;5031498;28;20545;-65
2023/01/28 02:00:56;;;;;;;16.55;14.88;;;;;;;1.12;100.00;160864.75;5029891;28;20466;-65
2023/01/28 02:03:32;;;;;;;16.15;14.55;;;;;;;1.07;100.00;160851.38;5030902;28;20477;-65
2023/01/28 02:05:58;;;;;;;17.83;16.05;;;;;;;1.02;100.00;160839.28;5029878;28;20045;-65
2023/01/28 02:08:24;;;;;;;17.88;15.93;;;;;;;1.04;100.00;160843.28;5030927;28;20435;-65
2023/01/28 02:11:00;;;;;;;17.20;15.40;;;;;;;0.99;100.00;160831.22;5029647;28;20038;-65
2023/01/28 02:13:29;;;;;;;17.10;15.30;;;;;;;0.97;100.00;160824.53;5031436;28;20044;-65
2023/01/28 02:15:58;;;;;;;17.00;15.27;;;;;;;0.93;100.00;160816.47;5029665;28;20488;-65
2023/01/28 02:18:23;;;;;;;17.02;15.23;;;;;;;0.91;100.00;160809.75;5031029;28;20052;-65
2023/01/28 02:21:14;;;;;;;18.77;15.73;;;;;;;0.89;100.00;160805.75;5024676;28;20037;-65
2023/01/28 02:24:02;;;;;;;17.85;16.05;;;;;;;0.80;100.00;160781.59;5031095;28;20037;-65
2023/01/28 02:27:08;;;;;;;15.80;14.20;;;;;;;0.76;100.00;160770.91;5028943;28;20041;-65
2023/01/28 02:29:42;;;;;;;16.33;14.15;;;;;;;0.77;100.00;160773.59;5030507;28;20473;-64
2023/01/28 02:32:25;;;;;;;15.88;14.27;;;;;;;0.77;100.00;160773.59;5029791;28;20106;-64
2023/01/28 02:34:59;;;;;;;20.08;13.23;;;;;;;0.69;100.00;160753.44;5031255;28;20029;-64
2023/01/28 02:37:32;;;;;;;15.55;13.93;;;;;;;0.70;100.00;160754.81;5029349;28;20045;-64
2023/01/28 02:40:02;;;;;;;15.93;14.23;;;;;;;0.71;100.00;160757.50;5031086;28;20029;-64
2023/01/28 02:42:33;;;;;;;19.48;16.35;;;;;;;0.74;100.00;160765.53;5029211;28;20041;-64
2023/01/28 02:44:59;;;;;;;19.30;16.85;;;;;;;0.71;100.00;160757.50;5030659;28;20033;-64
2023/01/28 02:50:12;;;;;;;21.02;17.08;;;;;;;0.61;100.00;160732.00;5029371;28;20048;-64
2023/01/28 02:55:52;;;;;;;14.77;13.25;;;;;;;0.54;100.00;160713.22;5029177;28;20056;-64
2023/01/28 02:58:35;;;;;;;15.27;13.75;;;;;;;0.49;100.00;160701.16;5030634;28;20062;-64
2023/01/28 03:01:08;;;;;;;15.07;13.23;;;;;;;0.47;100.00;160695.81;5029034;28;20052;-64
2023/01/28 03:03:54;;;;;;;14.43;12.88;;;;;;;0.45;100.00;160690.44;5030947;28;20034;-64
2023/01/28 03:06:29;;;;;;;13.85;12.25;;;;;;;0.37;100.00;160669.00;5028881;28;20054;-64
2023/01/28 03:37:13;;;;;;;17.70;15.40;;;;;;;0.15;100.00;160614.03;5032364;28;20060;-64
2023/01/28 03:39:39;;;;;;;17.95;16.05;;;;;;;0.15;100.00;160612.72;5034595;28;20017;-66
2023/01/28 03:42:07;;;;;;;20.60;17.52;;;;;;;0.12;100.00;160606.00;5032943;28;20052;-66
2023/01/28 03:44:51;;;;;;;20.92;16.42;;;;;;;0.14;100.00;160610.00;5033662;28;20051;-65
2023/01/28 03:47:19;;;;;;;20.55;17.80;;;;;;;0.13;100.00;160607.34;5032464;28;20129;-65
2023/01/28 03:49:50;;;;;;;21.75;18.73;;;;;;;0.12;100.00;160606.00;5033852;28;20100;-65
2023/01/28 03:52:21;;;;;;;25.98;20.73;;;;;;;0.09;100.00;160596.63;5032018;28;20120;-64
2023/01/28 03:54:47;;;;;;;24.83;18.45;;;;;;;0.12;100.00;160604.66;5034133;28;20017;-64
2023/01/28 03:57:14;;;;;;;21.95;19.05;;;;;;;0.11;100.00;160602.00;5032668;28;20099;-65
2023/01/28 03:59:40;;;;;;;24.83;20.27;;;;;;;0.06;100.00;160589.94;5033938;28;20025;-65
2023/01/28 04:02:06;;;;;;;22.85;20.30;;;;;;;0.08;100.00;160595.25;5032477;28;20045;-65
2023/01/28 04:04:31;;;;;;;24.02;20.83;;;;;;;0.06;100.00;160588.56;5033607;28;20372;-65
2023/01/28 04:06:57;;;;;;;26.77;22.52;;;;;;;0.07;100.00;160591.25;5031902;28;20041;-65
2023/01/28 04:09:23;;;;;;;24.40;20.40;;;;;;;0.04;100.00;160584.56;5033938;28;20028;-65
2023/01/28 04:11:49;;;;;;;25.02;19.90;;;;;;;0.06;100.00;160588.56;5032265;28;20033;-65
2023/01/28 04:14:15;;;;;;;23.40;19.13;;;;;;;-0.02;100.00;160569.81;5033378;28;20037;-65
2023/01/28 04:16:41;;;;;;;26.00;20.50;;;;;;;0.01;100.00;160575.19;5032133;28;20558;-64
2023/01/28 04:19:07;;;;;;;29.08;22.20;;;;;;;0.09;100.00;160596.63;5033558;28;20014;-64
2023/01/28 04:21:33;;;;;;;26.92;22.67;;;;;;;0.07;100.00;160591.25;5031541;28;20033;-64
2023/01/28 04:23:58;;;;;;;23.35;20.58;;;;;;;-0.08;100.00;160553.75;5033426;28;20028;-64
2023/01/28 04:26:23;;;;;;;28.17;23.33;;;;;;;0.01;100.00;160575.19;5030990;28;20041;-65
2023/01/28 04:28:49;;;;;;;27.70;22.42;;;;;;;-0.01;100.00;160571.19;5033678;28;20026;-65
2023/01/28 04:31:14;;;;;;;28.85;23.67;;;;;;;-0.03;100.00;160567.13;5031586;28;20432;-65
2023/01/28 04:33:39;;;;;;;30.17;23.80;;;;;;;-0.07;100.00;160556.44;5033411;28;20021;-65
2023/01/28 04:36:05;;;;;;;30.00;25.15;;;;;;;-0.14;100.00;160537.66;5031708;28;20042;-65
2023/01/28 04:38:30;;;;;;;26.33;22.55;;;;;;;-0.18;100.00;160528.28;5033067;28;20044;-65
2023/01/28 04:40:56;;;;;;;31.65;24.58;;;;;;;-0.24;100.00;160512.22;5031659;28;20041;-65
2023/01/28 04:43:21;;;;;;;27.80;21.60;;;;;;;-0.26;100.00;160505.53;5032670;28;20025;-65
2023/01/28 04:45:47;;;;;;;30.30;23.80;;;;;;;-0.32;100.00;160492.09;5031587;28;20034;-65
2023/01/28 04:48:14;;;;;;;27.35;21.08;;;;;;;-0.34;100.00;160486.78;5033230;28;20029;-65
2023/01/28 04:50:39;;;;;;;29.48;22.88;;;;;;;-0.34;100.00;160486.78;5031398;28;20044;-64
2023/01/28 04:53:05;;;;;;;27.60;21.80;;;;;;;-0.32;100.00;160490.78;5033044;28;20376;-64
2023/01/28 04:55:30;;;;;;;25.90;21.63;;;;;;;-0.38;100.00;160476.03;5031134;28;20045;-63
2023/01/28 04:57:56;;;;;;;27.45;20.38;;;;;;;-0.34;100.00;160486.78;5032629;28;20021;-64
2023/01/28 05:00:21;;;;;;;27.85;22.27;;;;;;;-0.39;100.00;160473.34;5030957;28;20038;-64
2023/01/28 05:02:47;;;;;;;26.80;23.92;;;;;;;-0.40;100.00;160469.34;5032864;28;20025;-64
2023/01/28 05:05:12;;;;;;;34.10;24.73;;;;;;;-0.38;100.00;160476.03;5030984;28;20049;-63
2023/01/28 05:07:37;;;;;;;31.02;26.30;;;;;;;-0.35;100.00;160482.72;5032449;28;20075;-64
2023/01/28 05:10:03;;;;;;;33.78;23.70;;;;;;;-0.36;100.00;160480.03;5030978;28;20469;-63
2023/01/28 05:12:31;;;;;;;33.13;25.70;;;;;;;-0.40;100.00;160470.66;5032092;28;20017;-65
2023/01/28 05:14:59;;;;;;;29.60;24.25;;;;;;;-0.40;100.00;160470.66;5032287;28;20385;-64
2023/01/28 05:17:25;;;;;;;32.28;23.52;;;;;;;-0.37;100.00;160478.72;5030309;28;20463;-64
2023/01/28 05:19:50;;;;;;;33.63;25.05;;;;;;;-0.35;100.00;160484.09;5031807;28;20032;-63
2023/01/28 05:22:16;;;;;;;30.40;25.40;;;;;;;-0.35;100.00;160482.72;5030071;28;20050;-63
2023/01/28 05:24:41;;;;;;;31.52;24.98;;;;;;;-0.27;100.00;160502.84;5030995;28;20025;-63
2023/01/28 05:27:07;;;;;;;32.42;24.58;;;;;;;-0.30;100.00;160496.16;5030715;28;20060;-64
2023/01/28 05:29:32;;;;;;;32.95;24.83;;;;;;;-0.30;100.00;160494.78;5031606;28;20029;-64
2023/01/28 05:31:57;;;;;;;27.55;22.90;;;;;;;-0.28;100.00;160500.16;5030813;28;20103;-63
2023/01/28 05:34:23;;;;;;;28.88;22.70;;;;;;;-0.33;100.00;160488.09;5032016;28;20025;-65
2023/01/28 05:36:48;;;;;;;34.38;26.83;;;;;;;-0.32;100.00;160492.09;5028540;28;20042;-65
2023/01/28 05:39:13;;;;;;;31.15;22.83;;;;;;;-0.27;100.00;160502.84;5029211;28;20029;-66
2023/01/28 05:41:39;;;;;;;34.97;23.58;;;;;;;-0.33;100.00;160488.09;5030476;28;20048;-66
2023/01/28 05:44:04;;;;;;;32.40;27.02;;;;;;;-0.36;100.00;160481.41;5030670;28;20029;-65
2023/01/28 05:46:29;;;;;;;32.13;26.30;;;;;;;-0.42;100.00;160463.97;5028554;28;20049;-65
2023/01/28 05:48:55;;;;;;;34.63;26.83;;;;;;;-0.44;100.00;160459.97;5024388;28;20604;-65
2023/01/28 05:51:20;;;;;;;32.30;26.10;;;;;;;-0.38;100.00;160476.03;5028875;28;20041;-65
2023/01/28 05:53:45;;;;;;;32.30;24.42;;;;;;;-0.37;100.00;160477.34;5030301;28;20393;-65
2023/01/28 05:56:11;;;;;;;36.47;29.58;;;;;;;-0.38;100.00;160476.03;5029588;28;20068;-66
2023/01/28 05:58:36;;;;;;;35.35;27.30;;;;;;;-0.40;100.00;160469.34;5030481;28;20021;-65
2023/01/28 06:01:02;;;;;;;32.42;24.83;;;;;;;-0.40;100.00;160470.66;5028204;28;20048;-64
2023/01/28 06:03:27;;;;;;;34.50;26.02;;;;;;;-0.37;100.00;160478.72;5031031;28;20048;-65
2023/01/28 06:05:52;;;;;;;35.67;25.73;;;;;;;-0.38;100.00;160476.03;5028959;28;20042;-64
2023/01/28 06:08:18;;;;;;;33.30;26.35;;;;;;;-0.34;100.00;160485.41;5029440;28;20041;-65
2023/01/28 06:10:43;;;;;;;31.30;25.20;;;;;;;-0.34;100.00;160486.78;5029607;28;20042;-65
2023/01/28 06:13:08;;;;;;;31.67;24.02;;;;;;;-0.36;100.00;160481.41;5030271;28;20535;-65
2023/01/28 06:15:34;;;;;;;33.70;25.67;;;;;;;-0.40;100.00;160470.66;5028324;28;20396;-64
2023/01/28 06:17:59;;;;;;;31.23;23.95;;;;;;;-0.53;100.00;160437.22;5031141;28;20040;-65
2023/01/28 06:20:24;;;;;;;32.10;24.13;;;;;;;-0.53;100.00;160435.84;5023460;28;20037;-64
2023/01/28 06:22:51;;;;;;;30.98;24.60;;;;;;;-0.49;100.00;160446.56;5030174;28;20100;-65
2023/01/28 06:25:16;;;;;;;27.52;21.70;;;;;;;-0.53;100.00;160435.84;5028495;28;20045;-65
2023/01/28 06:27:42;;;;;;;33.88;25.33;;;;;;;-0.52;100.00;160438.53;5030497;28;20102;-65
2023/01/28 06:30:07;;;;;;;32.58;24.98;;;;;;;-0.56;100.00;160427.81;5029322;28;20388;-64
2023/01/28 06:32:33;;;;;;;32.50;25.20;;;;;;;-0.59;100.00;160419.78;5029669;28;20861;-65
2023/01/28 06:34:58;;;;;;;29.67;24.88;;;;;;;-0.65;100.00;160406.38;5028781;28;20021;-64
2023/01/28 06:37:24;;;;;;;31.73;25.50;;;;;;;-0.59;100.00;160421.09;5030158;28;20032;-65
2023/01/28 06:39:49;;;;;;;30.55;22.60;;;;;;;-0.60;100.00;160417.09;5029212;28;20052;-65
2023/01/28 06:42:14;;;;;;;35.78;25.88;;;;;;;-0.62;100.00;160411.72;5028483;28;20037;-65
2023/01/28 06:44:40;;;;;;;33.75;26.73;;;;;;;-0.54;100.00;160433.16;5030426;28;20029;-65
2023/01/28 06:47:06;;;;;;;32.25;24.40;;;;;;;-0.51;100.00;160442.53;5028006;28;20389;-65
2023/01/28 06:49:31;;;;;;;34.67;24.05;;;;;;;-0.44;100.00;160459.97;5026681;28;20037;-65
2023/01/28 06:51:56;;;;;;;28.67;22.65;;;;;;;-0.44;100.00;160459.97;5040323;28;20086;-65
2023/01/28 06:54:22;;;;;;;30.77;25.15;;;;;;;-0.48;100.00;160449.22;5040600;28;20025;-64
2023/01/28 06:56:47;;;;;;;29.08;22.73;;;;;;;-0.54;100.00;160434.50;5028442;28;20041;-65
2023/01/28 06:59:12;;;;;;;30.38;23.98;;;;;;;-0.45;100.00;160457.28;5029975;28;20022;-65
2023/01/28 07:01:38;;;;;;;26.85;22.67;;;;;;;-0.36;100.00;160481.41;5027657;28;20052;-64
2023/01/28 07:04:03;;;;;;;29.50;23.10;;;;;;;-0.42;100.00;160465.34;5028941;28;20025;-64
2023/01/28 07:06:28;;;;;;;27.67;22.35;;;;;;;-0.37;100.00;160478.72;5027601;28;20049;-65
2023/01/28 07:08:54;;;;;;;33.53;24.45;;;;;;;-0.39;100.00;160472.03;5028630;28;20022;-64
2023/01/28 07:11:19;;;;;;;32.33;23.25;;;;;;;-0.45;100.00;160455.97;5028100;28;20060;-64
2023/01/28 07:13:46;;;;;;;26.70;20.33;;;;;;;-0.45;100.00;160457.28;5028516;28;20021;-64
2023/01/28 07:16:11;;;;;;;30.17;21.42;;;;;;;-0.42;100.00;160465.34;5027062;28;20103;-64
2023/01/28 07:18:37;;;;;;;24.58;20.00;;;;;;;-0.41;100.00;160466.66;5029300;28;20021;-64
2023/01/28 07:21:02;;;;;;;25.50;20.80;;;;;;;-0.48;100.00;160449.22;5028292;28;20377;-64
2023/01/28 07:23:27;;;;;;;28.27;20.80;;;;;;;-0.47;100.00;160451.91;5029031;28;20032;-65
2023/01/28 07:25:53;;;;;;;25.65;19.92;;;;;;;-0.41;100.00;160466.66;5028456;28;20049;-64
2023/01/28 07:28:20;;;;;;;25.75;21.35;;;;;;;-0.40;100.00;160470.66;5029520;28;20029;-64
2023/01/28 07:30:51;;;;;;;25.67;21.73;;;;;;;-0.63;100.00;160409.06;5027579;28;20044;-64
2023/01/28 07:33:17;;;;;;;27.00;20.50;;;;;;;-0.30;100.00;160494.78;5022163;28;20039;-65
2023/01/28 07:35:43;;;;;;;24.70;18.75;;;;;;;-0.30;100.00;160494.78;5028480;28;20404;-65
2023/01/28 07:38:09;;;;;;;24.48;18.63;;;;;;;-0.30;100.00;160494.78;5029237;28;20025;-63
2023/01/28 07:40:34;;;;;;;24.58;17.75;;;;;;;-0.31;100.00;160493.47;5027715;28;20574;-61
2023/01/28 07:43:00;;;;;;;20.40;16.08;;;;;;;-0.27;100.00;160502.84;5029330;28;20021;-62
2023/01/28 07:45:27;;;;;;;25.23;18.17;;;;;;;-0.21;100.00;160518.91;5026932;28;20041;-62
2023/01/28 07:47:57;;;;;;;20.90;15.88;;;;;;;-0.30;100.00;160494.78;5029315;28;20112;-62
2023/01/28 07:50:23;;;;;;;23.33;18.23;;;;;;;-0.24;100.00;160510.84;5027694;28;20130;-62
2023/01/28 07:52:49;;;;;;;24.33;19.02;;;;;;;-0.23;100.00;160513.53;5029004;28;20461;-62
2023/01/28 07:55:15;;;;;;;25.20;18.27;;;;;;;-0.20;100.00;160522.91;5027780;28;20045;-61
2023/01/28 07:57:48;;;;;;;25.20;18.40;;;;;;;-0.21;100.00;160518.91;5030083;28;20053;-62
2023/01/28 08:00:14;;;;;;;20.40;16.55;;;;;;;-0.13;100.00;160540.34;5026452;28;20515;-61
2023/01/28 08:02:39;;;;;;;25.23;18.88;;;;;;;-0.08;100.00;160552.41;5032766;28;20105;-62
2023/01/28 08:05:05;;;;;;;21.13;17.92;;;;;;;-0.05;100.00;160561.81;5032004;28;20405;-61
2023/01/28 08:07:30;;;;;;;27.67;19.60;;;;;;;0.05;100.00;160585.88;5032063;28;20156;-62
2023/01/28 08:09:56;;;;;;;24.00;18.77;;;;;;;0.09;100.00;160596.63;5033187;28;20407;-62
2023/01/28 08:12:21;;;;;;;26.52;19.40;;;;;;;0.11;100.00;160602.00;5011943;28;20037;-62
2023/01/28 08:14:46;;;;;;;25.40;17.65;;;;;;;0.12;100.00;160606.00;5012190;28;20026;-62
2023/01/28 08:17:12;;;;;;;22.65;18.48;;;;;;;0.12;100.00;160604.66;5029320;28;20527;-62
2023/01/28 08:19:37;;;;;;;23.65;19.70;;;;;;;0.13;100.00;160607.34;5032443;28;20400;-62
2023/01/28 08:22:02;;;;;;;26.10;21.38;;;;;;;0.08;100.00;160593.94;5030818;28;20037;-62
2023/01/28 08:24:28;;;;;;;20.65;16.85;;;;;;;0.09;100.00;160596.63;5031947;28;20071;-62
2023/01/28 08:26:53;;;;;;;29.42;16.90;;;;;;;0.05;100.00;160585.88;5016324;28;20038;-62
2023/01/28 08:29:18;;;;;;;20.58;17.42;;;;;;;0.06;100.00;160588.56;5028628;28;20029;-62
2023/01/28 08:31:44;;;;;;;18.95;15.45;;;;;;;0.01;100.00;160575.19;5017439;28;20049;-62
2023/01/28 08:34:09;;;;;;;21.70;17.45;;;;;;;0.05;100.00;160585.88;5013144;28;20119;-62
2023/01/28 08:36:34;;;;;;;17.73;15.32;;;;;;;-0.07;100.00;160556.44;5029071;28;20500;-62
2023/01/28 08:39:00;;;;;;;20.73;16.52;;;;;;;0.07;100.00;160591.25;5022448;28;20030;-62
2023/01/28 08:41:25;;;;;;;17.70;15.43;;;;;;;0.11;100.00;160603.31;5010809;28;20087;-62
2023/01/28 08:43:50;;;;;;;22.02;17.45;;;;;;;0.22;100.00;160630.16;5010808;28;20424;-62
2023/01/28 08:46:16;;;;;;;19.10;17.17;;;;;;;0.19;100.00;160623.41;5009803;28;20049;-62
2023/01/28 08:48:41;;;;;;;20.60;16.85;;;;;;;0.24;100.00;160636.84;5018891;28;20022;-62
2023/01/28 08:51:06;;;;;;;19.95;17.52;;;;;;;0.21;100.00;160628.78;5021692;28;20046;-62
2023/01/28 08:53:32;;;;;;;25.38;18.83;;;;;;;0.14;100.00;160610.00;5009708;28;20034;-62
2023/01/28 08:55:57;;;;;;;19.25;16.52;;;;;;;0.16;100.00;160615.41;5011230;28;20042;-61
2023/01/28 08:58:22;;;;;;;20.60;17.77;;;;;;;0.19;100.00;160622.09;5011822;28;20022;-62
2023/01/28 09:00:49;;;;;;;21.05;17.23;;;;;;;0.13;100.00;160607.34;5010223;28;20546;-62
2023/01/28 09:03:15;;;;;;;22.58;18.05;;;;;;;0.15;100.00;160612.72;5012269;28;20030;-62
2023/01/28 09:05:40;;;;;;;45.80;17.77;;;;;;;0.05;100.00;160585.88;5000563;28;20050;-62
2023/01/28 09:08:09;;;;;;;19.73;17.85;;;;;;;0.15;100.00;160612.72;5009787;28;20022;-62
2023/01/28 09:10:36;;;;;;;20.52;18.42;;;;;;;0.21;100.00;160628.78;5008748;28;20055;-63
2023/01/28 09:13:13;;;;;;;17.25;15.55;;;;;;;0.20;100.00;160624.78;5010343;28;20025;-63
2023/01/28 09:15:38;;;;;;;19.52;17.48;;;;;;;0.23;100.00;160632.78;5008655;28;20050;-63
2023/01/28 09:18:04;;;;;;;21.60;17.77;;;;;;;0.27;100.00;160643.53;5010363;28;20088;-62
2023/01/28 09:20:31;;;;;;;24.98;19.05;;;;;;;0.19;100.00;160623.41;5011606;28;20050;-62
2023/01/28 09:22:57;;;;;;;18.23;15.68;;;;;;;0.14;100.00;160610.00;5009289;28;20539;-62
2023/01/28 09:25:23;;;;;;;16.95;15.27;;;;;;;0.11;100.00;160602.00;5009962;28;20137;-63
2023/01/28 09:27:48;;;;;;;19.13;16.85;;;;;;;0.12;100.00;160606.00;5009666;28;20010;-62
2023/01/28 09:30:13;;;;;;;18.88;17.00;;;;;;;0.20;100.00;160626.09;5008780;28;20393;-62
2023/01/28 09:32:39;;;;;;;19.85;17.88;;;;;;;0.20;100.00;160626.09;5010177;28;20120;-62
2023/01/28 09:35:04;;;;;;;23.65;17.60;;;;;;;0.20;100.00;160626.09;5009488;28;20033;-61
2023/01/28 09:37:30;;;;;;;16.38;14.60;;;;;;;0.19;100.00;160623.41;5010194;28;20660;-62
2023/01/28 09:39:55;;;;;;;16.95;14.75;;;;;;;0.29;100.00;160648.91;5009908;28;20030;-63
2023/01/28 09:42:43;;;;;;;17.10;15.40;;;;;;;0.26;100.00;160642.16;5007639;28;20053;-62
2023/01/28 09:45:20;;;;;;;17.40;14.77;;;;;;;0.21;100.00;160627.47;5010179;28;20029;-62
2023/01/28 09:47:55;;;;;;;16.00;14.32;;;;;;;0.20;100.00;160624.78;5011942;28;20477;-62
2023/01/28 09:50:34;;;;;;;15.38;13.93;;;;;;;0.22;100.00;160631.47;5010216;28;20034;-62
2023/01/28 09:53:13;;;;;;;18.42;14.25;;;;;;;0.48;100.00;160698.50;5012102;28;20052;-62
2023/01/28 09:55:43;;;;;;;12.75;11.45;;;;;;;0.39;100.00;160674.38;5009869;28;20124;-62
2023/01/28 09:58:14;;;;;;;14.95;13.38;;;;;;;0.37;100.00;160669.00;5011794;28;20025;-62
2023/01/28 10:00:57;;;;;;;17.08;13.63;;;;;;;0.36;100.00;160666.31;5010370;28;20041;-62
2023/01/28 10:03:41;;;;;;;15.00;13.48;;;;;;;0.33;100.00;160659.63;5011181;28;20033;-62
2023/01/28 10:06:13;;;;;;;18.20;15.18;;;;;;;0.47;100.00;160695.81;5010233;28;20080;-62
2023/01/28 10:08:58;;;;;;;18.13;11.38;;;;;;;0.50;100.00;160703.84;5011103;28;20026;-63
2023/01/28 10:11:56;;;;;;;14.95;11.05;;;;;;;0.56;100.00;160719.91;4998188;28;20054;-63
2023/01/28 10:14:44;;;;;;;13.90;12.27;;;;;;;0.61;100.00;160733.34;4993253;28;20030;-63
2023/01/28 10:17:18;;;;;;;12.90;11.60;;;;;;;0.56;100.00;160719.91;5004532;28;20053;-62
2023/01/28 10:19:52;;;;;;;16.05;13.20;;;;;;;0.67;100.00;160746.75;5028537;28;20098;-62
2023/01/28 10:22:27;;;;;;;25.30;14.82;;;;;;;0.78;100.00;160776.28;5011814;28;20042;-62
2023/01/28 10:25:02;;;;;;;14.57;13.07;;;;;;;0.92;100.00;160813.81;5009198;28;20029;-62
2023/01/28 10:27:30;;;;;;;18.10;14.45;;;;;;;0.99;100.00;160829.91;5002971;28;20046;-63
2023/01/28 10:29:57;;;;;;;15.95;13.32;;;;;;;0.95;100.00;160821.84;5010391;28;20539;-62
2023/01/28 10:32:28;;;;;;;13.27;11.07;;;;;;;0.98;100.00;160827.22;5028427;28;20042;-62
2023/01/28 10:34:55;;;;;;;12.48;11.20;;;;;;;1.18;100.00;160880.84;5029706;28;20025;-63
2023/01/28 10:37:20;;;;;;;12.93;11.65;;;;;;;1.24;100.00;160896.94;5029711;28;20045;-62
2023/01/28 10:39:46;;;;;;;13.73;12.18;;;;;;;1.81;100.00;161043.16;5030335;28;20075;-63
2023/01/28 10:42:32;;;;;;;15.02;13.52;;;;;;;2.04;100.00;161104.91;5029263;28;20041;-62
2023/01/28 10:45:19;;;;;;;13.25;11.93;;;;;;;1.96;100.00;161082.09;5029414;28;20025;-56
2023/01/28 10:47:54;;;;;;;14.18;11.68;;;;;;;2.17;100.00;161138.47;5029847;28;20030;-63
2023/01/28 10:50:25;;;;;;;11.98;10.77;;;;;;;2.18;100.00;161141.16;5026502;28;20416;-62
2023/01/28 10:52:54;;;;;;;13.20;11.98;;;;;;;2.41;100.00;161200.22;5027565;28;20041;-62
2023/01/28 10:55:21;;;;;;;23.95;13.35;;;;;;;2.24;100.00;161155.88;5012768;28;20107;-62
2023/01/28 10:57:47;;;;;;;12.93;11.55;;;;;;;2.27;100.00;161162.66;5028687;28;20110;-62
2023/01/28 11:00:22;;;;;;;13.48;12.05;;;;;;;2.27;100.00;161162.66;5027176;28;20025;-62
2023/01/28 11:02:48;;;;;;;13.55;11.90;;;;;;;2.60;100.00;161248.53;5011054;28;20164;-62
2023/01/28 11:05:17;;;;;;;13.27;11.98;;;;;;;2.71;100.00;161278.09;5026883;28;20037;-62
2023/01/28 11:07:43;;;;;;;;;;;;;;;2.77;100.00;161294.19;5027944;28;20040;-63
2023/01/28 11:10:25;;;;;;;12.63;11.50;;;;;;;3.33;100.00;161439.22;5027881;28;19921;-63
2023/01/28 11:12:55;;;;;;;12.48;11.25;;;;;;;3.92;100.00;161592.38;5029723;28;20036;-63
2023/01/28 11:15:20;;;;;;;12.50;11.35;;;;;;;4.59;100.00;161767.13;5026694;28;20486;-62
2023/01/28 11:17:51;;;;;;;12.45;11.25;;;;;;;4.89;100.00;161846.47;5029914;28;20077;-63
2023/01/28 11:20:21;;;;;;;12.45;11.25;;;;;;;5.10;100.00;161898.94;5026675;28;20029;-62
2023/01/28 11:22:47;;;;;;;16.55;12.60;;;;;;;5.11;100.00;161901.59;5016593;28;20028;-62
2023/01/28 11:25:48;;;;;;;13.20;11.80;;;;;;;4.70;100.00;161796.72;5028531;28;20025;-62
2023/01/28 11:28:21;;;;;;;10.93;9.93;;;;;;;4.56;100.00;161759.09;5027335;28;20060;-63
2023/01/28 11:30:52;;;;;;;15.95;12.68;;;;;;;3.79;100.00;161558.81;5028464;28;20099;-62
2023/01/28 11:33:21;;;;;;;13.82;12.45;;;;;;;3.52;100.00;161487.59;5029123;28;20025;-62
2023/01/28 11:36:07;;;;;;;15.82;11.07;;;;;;;3.79;100.00;161560.16;5023683;28;20112;-63
2023/01/28 11:38:33;;;;;;;16.38;12.45;;;;;;;3.77;100.00;161553.44;5033219;28;20101;-62
2023/01/28 11:41:02;;;;;;;12.55;11.35;;;;;;;3.75;100.00;161549.41;5032707;28;20091;-63
2023/01/28 11:43:29;;;;;;;16.38;12.38;;;;;;;3.55;100.00;161495.63;5033263;28;20619;-62
2023/01/28 11:46:31;;;;;;;13.30;11.38;;;;;;;3.45;100.00;161471.50;5031966;28;20098;-63